Cotopaxi International Airport
SELT : rendu visible

Aérodrome :











RETROUVEZ-NOUS SUR...

 
LOGIN :

S'inscrire | Disclaimer

   EN    FR    IT 

 









Légende :    VFR   VFR Marginal   IFR   IFR Intensif   IFR Très Intensif
Visi : 
Plafond : 
>= 8 km
>= 3000ft
5 à 8 km
1000 à 3000 ft
1500m à 5 km
500 à 1000 ft
800 à 1500m
200 à 500 ft
< 800m
< 200 ft
Symboles :   Orages  Brouillard  Fortes neiges  Fortes précipitations  Vent > 20 kt






- Altitude de l'aérodrome : 9205 ft
- Code IATA : LTX


SELT - Cotopaxi International

DERNIER METAR :
  • 281700Z 14005KT 9999 SCT030 17/06 Q1029

METARs EXPIRÉS :
  • 281600Z 13003KT 9999 FEW030 SCT300 17/06 Q1031
  • 281500Z 12002KT 9999 FEW030 15/06 Q1031
  • 281400Z 01001KT 9999 FEW100 12/06 Q1032

TAF SELT
Valide du 28 à 12h jusqu'au 29 à 12h UTC


280940Z 2812/2912 21005KT 9999 SCT030 SCT100
BECMG 2819/2820 BKN030 SCT100
PROB40
TEMPO 2820/2823 SHRA
BECMG 2900/2902 34004KT SCT010 BKN023 TX20/2819Z TN08/2911Z



MET'MAP, la Météo Aéronautique d'un coup d'oeil ! - Copyright ORBIFLY Décembre 2007 - Disclaimer

ORBIFLY MET'MAP TEAM :

Programmation & Développement : Alexandra Zaïnal
Sur une idée originale de : Baudouin d'Aumeries
Assistance à la programmation : Marc-Olivier Méhu
Soutien technique & logistique : Manuel Goepfert

Contact : metmap@orbifly.com




SOURCES & CREDITS :

   NOAA       Earth
Advisory